sensor_id;sensor_type;location;lat;lon;timestamp;temperature;humidity
43987;DHT22;29650;47.378;8.300;2023-01-29T00:01:31;1.30;94.20
43987;DHT22;29650;47.378;8.300;2023-01-29T00:03:58;1.30;94.20
43987;DHT22;29650;47.378;8.300;2023-01-29T00:06:27;1.30;94.30
43987;DHT22;29650;47.378;8.300;2023-01-29T00:08:54;1.30;94.10
43987;DHT22;29650;47.378;8.300;2023-01-29T00:11:21;1.40;93.70
43987;DHT22;29650;47.378;8.300;2023-01-29T00:13:48;1.40;93.50
43987;DHT22;29650;47.378;8.300;2023-01-29T00:16:15;1.30;94.20
43987;DHT22;29650;47.378;8.300;2023-01-29T00:18:42;1.20;94.60
43987;DHT22;29650;47.378;8.300;2023-01-29T00:21:10;1.30;94.20
43987;DHT22;29650;47.378;8.300;2023-01-29T00:23:38;1.30;94.00
43987;DHT22;29650;47.378;8.300;2023-01-29T00:26:05;1.20;93.70
43987;DHT22;29650;47.378;8.300;2023-01-29T00:28:33;1.30;93.80
43987;DHT22;29650;47.378;8.300;2023-01-29T00:31:06;1.30;94.00
43987;DHT22;29650;47.378;8.300;2023-01-29T00:33:33;1.10;93.90
43987;DHT22;29650;47.378;8.300;2023-01-29T00:36:02;1.20;94.20
43987;DHT22;29650;47.378;8.300;2023-01-29T00:38:29;1.30;94.80
43987;DHT22;29650;47.378;8.300;2023-01-29T00:41:03;1.20;95.00
43987;DHT22;29650;47.378;8.300;2023-01-29T00:43:47;1.30;94.50
43987;DHT22;29650;47.378;8.300;2023-01-29T00:46:32;1.30;94.60
43987;DHT22;29650;47.378;8.300;2023-01-29T00:48:59;1.20;94.80
43987;DHT22;29650;47.378;8.300;2023-01-29T00:51:26;1.30;94.80
43987;DHT22;29650;47.378;8.300;2023-01-29T00:53:52;1.30;95.10
43987;DHT22;29650;47.378;8.300;2023-01-29T00:56:29;1.30;95.30
43987;DHT22;29650;47.378;8.300;2023-01-29T00:58:56;1.20;95.20
43987;DHT22;29650;47.378;8.300;2023-01-29T01:01:23;1.20;95.50
43987;DHT22;29650;47.378;8.300;2023-01-29T01:04:04;1.30;95.40
43987;DHT22;29650;47.378;8.300;2023-01-29T01:06:31;1.30;95.40
43987;DHT22;29650;47.378;8.300;2023-01-29T01:08:58;1.20;95.50
43987;DHT22;29650;47.378;8.300;2023-01-29T01:11:43;1.30;96.00
43987;DHT22;29650;47.378;8.300;2023-01-29T01:14:10;1.10;95.70
43987;DHT22;29650;47.378;8.300;2023-01-29T01:16:37;1.20;95.90
43987;DHT22;29650;47.378;8.300;2023-01-29T01:19:04;1.20;95.90
43987;DHT22;29650;47.378;8.300;2023-01-29T01:21:32;1.30;96.30
43987;DHT22;29650;47.378;8.300;2023-01-29T01:23:58;1.20;95.90
43987;DHT22;29650;47.378;8.300;2023-01-29T01:26:25;1.20;95.90
43987;DHT22;29650;47.378;8.300;2023-01-29T01:28:54;1.20;95.80
43987;DHT22;29650;47.378;8.300;2023-01-29T01:31:21;1.20;95.80
43987;DHT22;29650;47.378;8.300;2023-01-29T01:33:48;1.20;96.10
43987;DHT22;29650;47.378;8.300;2023-01-29T01:36:16;1.10;95.60
43987;DHT22;29650;47.378;8.300;2023-01-29T01:38:43;1.20;95.20
43987;DHT22;29650;47.378;8.300;2023-01-29T01:41:11;1.20;95.80
43987;DHT22;29650;47.378;8.300;2023-01-29T01:43:49;1.20;95.70
43987;DHT22;29650;47.378;8.300;2023-01-29T01:46:18;1.20;95.70
43987;DHT22;29650;47.378;8.300;2023-01-29T01:48:49;1.20;95.30
43987;DHT22;29650;47.378;8.300;2023-01-29T01:51:18;1.20;96.10
43987;DHT22;29650;47.378;8.300;2023-01-29T01:53:50;1.10;95.30
43987;DHT22;29650;47.378;8.300;2023-01-29T01:56:22;1.10;95.50
43987;DHT22;29650;47.378;8.300;2023-01-29T01:58:52;1.10;95.60
43987;DHT22;29650;47.378;8.300;2023-01-29T02:01:23;1.20;95.30
43987;DHT22;29650;47.378;8.300;2023-01-29T02:03:56;1.20;95.00
43987;DHT22;29650;47.378;8.300;2023-01-29T02:06:42;1.30;94.00
43987;DHT22;29650;47.378;8.300;2023-01-29T02:09:31;1.30;94.40
43987;DHT22;29650;47.378;8.300;2023-01-29T02:12:02;1.20;94.30
43987;DHT22;29650;47.378;8.300;2023-01-29T02:14:30;1.20;94.10
43987;DHT22;29650;47.378;8.300;2023-01-29T02:17:00;1.20;93.70
43987;DHT22;29650;47.378;8.300;2023-01-29T02:19:38;1.30;93.40
43987;DHT22;29650;47.378;8.300;2023-01-29T02:25:46;1.30;92.30
43987;DHT22;29650;47.378;8.300;2023-01-29T02:28:24;1.40;92.00
43987;DHT22;29650;47.378;8.300;2023-01-29T02:31:02;1.30;92.30
43987;DHT22;29650;47.378;8.300;2023-01-29T02:33:38;1.30;91.80
43987;DHT22;29650;47.378;8.300;2023-01-29T02:36:14;1.30;92.50
43987;DHT22;29650;47.378;8.300;2023-01-29T02:38:49;1.30;92.40
43987;DHT22;29650;47.378;8.300;2023-01-29T02:41:24;1.30;92.60
43987;DHT22;29650;47.378;8.300;2023-01-29T02:43:57;1.40;92.60
43987;DHT22;29650;47.378;8.300;2023-01-29T02:46:31;1.30;92.60
43987;DHT22;29650;47.378;8.300;2023-01-29T02:49:03;1.40;92.50
43987;DHT22;29650;47.378;8.300;2023-01-29T02:51:36;1.40;92.40
43987;DHT22;29650;47.378;8.300;2023-01-29T02:54:12;1.40;92.30
43987;DHT22;29650;47.378;8.300;2023-01-29T02:56:47;1.20;92.90
43987;DHT22;29650;47.378;8.300;2023-01-29T02:59:20;1.30;92.30
43987;DHT22;29650;47.378;8.300;2023-01-29T03:01:52;1.60;92.10
43987;DHT22;29650;47.378;8.300;2023-01-29T03:04:23;1.60;92.30
43987;DHT22;29650;47.378;8.300;2023-01-29T03:06:55;1.40;92.30
43987;DHT22;29650;47.378;8.300;2023-01-29T03:09:27;1.40;92.80
43987;DHT22;29650;47.378;8.300;2023-01-29T03:11:58;1.40;92.80
43987;DHT22;29650;47.378;8.300;2023-01-29T03:14:46;1.40;92.40
43987;DHT22;29650;47.378;8.300;2023-01-29T03:17:37;1.30;92.60
43987;DHT22;29650;47.378;8.300;2023-01-29T03:20:10;1.50;92.20
43987;DHT22;29650;47.378;8.300;2023-01-29T03:22:40;1.40;92.20
43987;DHT22;29650;47.378;8.300;2023-01-29T03:25:10;1.50;92.20
43987;DHT22;29650;47.378;8.300;2023-01-29T03:27:59;1.40;92.40
43987;DHT22;29650;47.378;8.300;2023-01-29T03:30:47;1.40;92.20
43987;DHT22;29650;47.378;8.300;2023-01-29T03:33:39;1.40;92.20
43987;DHT22;29650;47.378;8.300;2023-01-29T03:36:12;1.40;92.50
43987;DHT22;29650;47.378;8.300;2023-01-29T03:38:40;1.60;91.90
43987;DHT22;29650;47.378;8.300;2023-01-29T03:41:11;1.40;92.10
43987;DHT22;29650;47.378;8.300;2023-01-29T03:43:49;1.30;92.30
43987;DHT22;29650;47.378;8.300;2023-01-29T03:46:22;1.30;92.60
43987;DHT22;29650;47.378;8.300;2023-01-29T03:48:57;1.40;92.40
43987;DHT22;29650;47.378;8.300;2023-01-29T03:51:29;1.50;92.30
43987;DHT22;29650;47.378;8.300;2023-01-29T03:54:06;1.50;91.90
43987;DHT22;29650;47.378;8.300;2023-01-29T03:56:42;1.50;91.70
43987;DHT22;29650;47.378;8.300;2023-01-29T03:59:17;1.40;92.00
43987;DHT22;29650;47.378;8.300;2023-01-29T04:01:50;1.40;92.00
43987;DHT22;29650;47.378;8.300;2023-01-29T04:04:21;1.40;91.90
43987;DHT22;29650;47.378;8.300;2023-01-29T04:06:50;1.40;92.00
43987;DHT22;29650;47.378;8.300;2023-01-29T04:09:21;1.40;91.50
43987;DHT22;29650;47.378;8.300;2023-01-29T04:11:54;1.40;91.80
43987;DHT22;29650;47.378;8.300;2023-01-29T04:14:22;1.30;91.80
43987;DHT22;29650;47.378;8.300;2023-01-29T04:16:53;1.50;91.10
43987;DHT22;29650;47.378;8.300;2023-01-29T04:19:23;1.50;90.60
43987;DHT22;29650;47.378;8.300;2023-01-29T04:21:55;1.60;90.80
43987;DHT22;29650;47.378;8.300;2023-01-29T04:24:25;1.50;91.00
43987;DHT22;29650;47.378;8.300;2023-01-29T04:26:59;1.40;91.10
43987;DHT22;29650;47.378;8.300;2023-01-29T04:29:44;1.40;90.70
43987;DHT22;29650;47.378;8.300;2023-01-29T04:32:21;1.30;90.00
43987;DHT22;29650;47.378;8.300;2023-01-29T04:34:59;1.40;90.20
43987;DHT22;29650;47.378;8.300;2023-01-29T04:37:35;1.40;90.40
43987;DHT22;29650;47.378;8.300;2023-01-29T04:40:15;1.40;90.30
43987;DHT22;29650;47.378;8.300;2023-01-29T04:42:47;1.40;90.90
43987;DHT22;29650;47.378;8.300;2023-01-29T04:45:21;1.40;90.70
43987;DHT22;29650;47.378;8.300;2023-01-29T04:47:59;1.50;89.80
43987;DHT22;29650;47.378;8.300;2023-01-29T04:50:35;1.50;89.30
43987;DHT22;29650;47.378;8.300;2023-01-29T04:53:09;1.50;90.00
43987;DHT22;29650;47.378;8.300;2023-01-29T04:55:41;1.40;89.80
43987;DHT22;29650;47.378;8.300;2023-01-29T04:58:13;1.40;89.90
43987;DHT22;29650;47.378;8.300;2023-01-29T05:00:45;1.50;89.90
43987;DHT22;29650;47.378;8.300;2023-01-29T05:03:16;1.40;90.30
43987;DHT22;29650;47.378;8.300;2023-01-29T05:05:44;1.30;90.80
43987;DHT22;29650;47.378;8.300;2023-01-29T05:08:14;1.40;90.30
43987;DHT22;29650;47.378;8.300;2023-01-29T05:10:42;1.30;89.30
43987;DHT22;29650;47.378;8.300;2023-01-29T05:13:11;1.20;90.20
43987;DHT22;29650;47.378;8.300;2023-01-29T05:15:42;1.30;90.10
43987;DHT22;29650;47.378;8.300;2023-01-29T05:18:10;1.30;88.70
43987;DHT22;29650;47.378;8.300;2023-01-29T05:20:40;1.40;88.70
43987;DHT22;29650;47.378;8.300;2023-01-29T05:23:09;1.40;88.90
43987;DHT22;29650;47.378;8.300;2023-01-29T05:25:36;1.40;89.20
43987;DHT22;29650;47.378;8.300;2023-01-29T05:28:03;1.40;89.80
43987;DHT22;29650;47.378;8.300;2023-01-29T05:30:31;1.30;90.30
43987;DHT22;29650;47.378;8.300;2023-01-29T05:32:58;0.50;89.70
43987;DHT22;29650;47.378;8.300;2023-01-29T05:35:25;1.30;90.10
43987;DHT22;29650;47.378;8.300;2023-01-29T05:37:54;1.40;90.30
43987;DHT22;29650;47.378;8.300;2023-01-29T05:40:22;1.30;90.30
43987;DHT22;29650;47.378;8.300;2023-01-29T05:42:49;1.30;90.30
43987;DHT22;29650;47.378;8.300;2023-01-29T05:45:17;1.30;90.60
43987;DHT22;29650;47.378;8.300;2023-01-29T05:47:44;1.10;90.60
43987;DHT22;29650;47.378;8.300;2023-01-29T05:50:12;1.20;90.30
43987;DHT22;29650;47.378;8.300;2023-01-29T05:52:39;1.20;90.00
43987;DHT22;29650;47.378;8.300;2023-01-29T05:55:08;1.20;90.20
43987;DHT22;29650;47.378;8.300;2023-01-29T05:57:36;1.20;89.70
43987;DHT22;29650;47.378;8.300;2023-01-29T06:00:05;1.30;89.70
43987;DHT22;29650;47.378;8.300;2023-01-29T06:02:32;1.40;90.00
43987;DHT22;29650;47.378;8.300;2023-01-29T06:04:58;1.40;90.30
43987;DHT22;29650;47.378;8.300;2023-01-29T06:07:25;1.40;90.60
43987;DHT22;29650;47.378;8.300;2023-01-29T06:09:52;1.40;90.50
43987;DHT22;29650;47.378;8.300;2023-01-29T06:12:20;1.40;90.60
43987;DHT22;29650;47.378;8.300;2023-01-29T06:14:47;1.40;90.50
43987;DHT22;29650;47.378;8.300;2023-01-29T06:17:14;1.50;90.30
43987;DHT22;29650;47.378;8.300;2023-01-29T06:19:41;1.40;88.40
43987;DHT22;29650;47.378;8.300;2023-01-29T06:22:08;1.30;88.90
43987;DHT22;29650;47.378;8.300;2023-01-29T06:24:35;1.30;88.90
43987;DHT22;29650;47.378;8.300;2023-01-29T06:27:02;1.40;88.40
43987;DHT22;29650;47.378;8.300;2023-01-29T06:29:30;1.30;88.60
43987;DHT22;29650;47.378;8.300;2023-01-29T06:31:57;1.40;89.10
43987;DHT22;29650;47.378;8.300;2023-01-29T06:34:24;1.30;89.20
43987;DHT22;29650;47.378;8.300;2023-01-29T06:36:51;1.40;89.40
43987;DHT22;29650;47.378;8.300;2023-01-29T06:39:18;1.50;89.40
43987;DHT22;29650;47.378;8.300;2023-01-29T06:41:45;1.30;89.60
43987;DHT22;29650;47.378;8.300;2023-01-29T06:44:12;1.50;88.60
43987;DHT22;29650;47.378;8.300;2023-01-29T06:46:40;1.50;88.80
43987;DHT22;29650;47.378;8.300;2023-01-29T06:49:07;1.30;89.60
43987;DHT22;29650;47.378;8.300;2023-01-29T06:51:34;1.30;90.10
43987;DHT22;29650;47.378;8.300;2023-01-29T06:54:00;1.30;89.80
43987;DHT22;29650;47.378;8.300;2023-01-29T06:56:27;1.30;90.00
43987;DHT22;29650;47.378;8.300;2023-01-29T06:58:54;1.30;89.10
43987;DHT22;29650;47.378;8.300;2023-01-29T07:01:21;1.20;89.90
43987;DHT22;29650;47.378;8.300;2023-01-29T07:03:50;1.40;90.10
43987;DHT22;29650;47.378;8.300;2023-01-29T07:06:17;1.30;90.00
43987;DHT22;29650;47.378;8.300;2023-01-29T07:08:44;1.10;89.80
43987;DHT22;29650;47.378;8.300;2023-01-29T07:11:11;1.20;90.20
43987;DHT22;29650;47.378;8.300;2023-01-29T07:13:38;1.20;90.10
43987;DHT22;29650;47.378;8.300;2023-01-29T07:16:05;1.00;90.70
43987;DHT22;29650;47.378;8.300;2023-01-29T07:18:33;1.20;90.40
43987;DHT22;29650;47.378;8.300;2023-01-29T07:21:04;1.10;90.10
43987;DHT22;29650;47.378;8.300;2023-01-29T07:23:32;1.20;90.20
43987;DHT22;29650;47.378;8.300;2023-01-29T07:26:00;1.20;90.40
43987;DHT22;29650;47.378;8.300;2023-01-29T07:28:28;1.20;90.20
43987;DHT22;29650;47.378;8.300;2023-01-29T07:30:56;1.20;90.30
43987;DHT22;29650;47.378;8.300;2023-01-29T07:33:23;1.00;90.60
43987;DHT22;29650;47.378;8.300;2023-01-29T07:35:51;1.10;90.20
43987;DHT22;29650;47.378;8.300;2023-01-29T07:38:19;1.10;90.50
43987;DHT22;29650;47.378;8.300;2023-01-29T07:40:46;1.00;90.10
43987;DHT22;29650;47.378;8.300;2023-01-29T07:43:14;1.00;90.30
43987;DHT22;29650;47.378;8.300;2023-01-29T07:45:41;1.10;89.80
43987;DHT22;29650;47.378;8.300;2023-01-29T07:48:10;1.10;89.40
43987;DHT22;29650;47.378;8.300;2023-01-29T07:50:39;1.20;90.40
43987;DHT22;29650;47.378;8.300;2023-01-29T07:53:06;1.30;90.00
43987;DHT22;29650;47.378;8.300;2023-01-29T07:55:34;1.10;90.10
43987;DHT22;29650;47.378;8.300;2023-01-29T07:58:02;1.30;89.90
43987;DHT22;29650;47.378;8.300;2023-01-29T08:00:30;1.30;89.60
43987;DHT22;29650;47.378;8.300;2023-01-29T08:03:02;1.20;89.70
43987;DHT22;29650;47.378;8.300;2023-01-29T08:05:29;1.30;89.30
43987;DHT22;29650;47.378;8.300;2023-01-29T08:07:56;1.30;89.60
43987;DHT22;29650;47.378;8.300;2023-01-29T08:10:23;1.40;89.00
43987;DHT22;29650;47.378;8.300;2023-01-29T08:12:54;1.40;88.90
43987;DHT22;29650;47.378;8.300;2023-01-29T08:15:21;1.40;89.40
43987;DHT22;29650;47.378;8.300;2023-01-29T08:17:49;1.50;89.10
43987;DHT22;29650;47.378;8.300;2023-01-29T08:20:16;1.40;88.80
43987;DHT22;29650;47.378;8.300;2023-01-29T08:22:43;1.40;88.60
43987;DHT22;29650;47.378;8.300;2023-01-29T08:25:10;1.40;87.90
43987;DHT22;29650;47.378;8.300;2023-01-29T08:27:37;1.30;88.70
43987;DHT22;29650;47.378;8.300;2023-01-29T08:30:07;1.40;88.20
43987;DHT22;29650;47.378;8.300;2023-01-29T08:32:34;1.40;87.90
43987;DHT22;29650;47.378;8.300;2023-01-29T08:35:01;1.40;88.40
43987;DHT22;29650;47.378;8.300;2023-01-29T08:37:28;1.30;87.60
43987;DHT22;29650;47.378;8.300;2023-01-29T08:39:55;1.40;87.80
43987;DHT22;29650;47.378;8.300;2023-01-29T08:42:21;1.50;87.70
43987;DHT22;29650;47.378;8.300;2023-01-29T08:44:48;1.60;87.50
43987;DHT22;29650;47.378;8.300;2023-01-29T08:47:17;1.70;87.60
43987;DHT22;29650;47.378;8.300;2023-01-29T08:49:43;1.50;86.50
43987;DHT22;29650;47.378;8.300;2023-01-29T08:52:11;1.60;86.70
43987;DHT22;29650;47.378;8.300;2023-01-29T08:54:38;1.70;86.60
43987;DHT22;29650;47.378;8.300;2023-01-29T08:57:05;1.60;87.10
43987;DHT22;29650;47.378;8.300;2023-01-29T08:59:32;1.60;88.00
43987;DHT22;29650;47.378;8.300;2023-01-29T09:01:59;1.70;86.60
43987;DHT22;29650;47.378;8.300;2023-01-29T09:04:27;1.80;87.00
43987;DHT22;29650;47.378;8.300;2023-01-29T09:06:54;1.80;86.00
43987;DHT22;29650;47.378;8.300;2023-01-29T09:09:21;1.80;85.90
43987;DHT22;29650;47.378;8.300;2023-01-29T09:11:48;1.90;86.00
43987;DHT22;29650;47.378;8.300;2023-01-29T09:14:15;1.80;86.70
43987;DHT22;29650;47.378;8.300;2023-01-29T09:16:42;1.90;86.70
43987;DHT22;29650;47.378;8.300;2023-01-29T09:19:09;1.90;86.60
43987;DHT22;29650;47.378;8.300;2023-01-29T09:21:38;2.00;87.40
43987;DHT22;29650;47.378;8.300;2023-01-29T09:24:05;2.00;88.80
43987;DHT22;29650;47.378;8.300;2023-01-29T09:26:32;1.90;88.10
43987;DHT22;29650;47.378;8.300;2023-01-29T09:28:59;1.90;88.50
43987;DHT22;29650;47.378;8.300;2023-01-29T09:31:26;2.00;86.60
43987;DHT22;29650;47.378;8.300;2023-01-29T09:33:52;1.90;88.60
43987;DHT22;29650;47.378;8.300;2023-01-29T09:36:19;1.80;89.80
43987;DHT22;29650;47.378;8.300;2023-01-29T09:38:48;1.80;88.10
43987;DHT22;29650;47.378;8.300;2023-01-29T09:41:32;1.80;89.60
43987;DHT22;29650;47.378;8.300;2023-01-29T09:44:12;1.80;89.70
43987;DHT22;29650;47.378;8.300;2023-01-29T09:46:43;1.80;89.80
43987;DHT22;29650;47.378;8.300;2023-01-29T09:49:16;1.90;90.10
43987;DHT22;29650;47.378;8.300;2023-01-29T09:51:48;1.90;90.00
43987;DHT22;29650;47.378;8.300;2023-01-29T09:54:23;1.80;88.80
43987;DHT22;29650;47.378;8.300;2023-01-29T09:56:54;1.80;88.90
43987;DHT22;29650;47.378;8.300;2023-01-29T09:59:23;1.90;88.30
43987;DHT22;29650;47.378;8.300;2023-01-29T10:01:58;1.90;88.60
43987;DHT22;29650;47.378;8.300;2023-01-29T10:04:47;1.90;87.30
43987;DHT22;29650;47.378;8.300;2023-01-29T10:07:42;1.90;87.00
43987;DHT22;29650;47.378;8.300;2023-01-29T10:10:24;2.00;88.10
43987;DHT22;29650;47.378;8.300;2023-01-29T10:13:04;1.90;87.90
43987;DHT22;29650;47.378;8.300;2023-01-29T10:15:44;2.10;87.10
43987;DHT22;29650;47.378;8.300;2023-01-29T10:18:36;2.00;85.80
43987;DHT22;29650;47.378;8.300;2023-01-29T10:21:20;2.00;84.90
43987;DHT22;29650;47.378;8.300;2023-01-29T10:23:53;2.10;86.10
43987;DHT22;29650;47.378;8.300;2023-01-29T10:26:26;2.10;87.50
43987;DHT22;29650;47.378;8.300;2023-01-29T10:28:55;2.00;86.40
43987;DHT22;29650;47.378;8.300;2023-01-29T10:31:25;2.10;85.80
43987;DHT22;29650;47.378;8.300;2023-01-29T10:34:00;2.00;85.50
43987;DHT22;29650;47.378;8.300;2023-01-29T10:36:33;2.00;86.80
43987;DHT22;29650;47.378;8.300;2023-01-29T10:39:02;2.20;86.60
43987;DHT22;29650;47.378;8.300;2023-01-29T10:41:43;2.10;86.60
43987;DHT22;29650;47.378;8.300;2023-01-29T10:44:24;2.10;86.10
43987;DHT22;29650;47.378;8.300;2023-01-29T10:47:04;2.00;87.50
43987;DHT22;29650;47.378;8.300;2023-01-29T10:49:59;2.00;86.60
43987;DHT22;29650;47.378;8.300;2023-01-29T10:52:41;2.00;85.30
43987;DHT22;29650;47.378;8.300;2023-01-29T10:55:22;2.50;87.50
43987;DHT22;29650;47.378;8.300;2023-01-29T10:58:02;2.20;85.00
43987;DHT22;29650;47.378;8.300;2023-01-29T11:00:35;2.20;84.40
43987;DHT22;29650;47.378;8.300;2023-01-29T11:03:13;2.20;84.20
43987;DHT22;29650;47.378;8.300;2023-01-29T11:05:43;2.20;82.80
43987;DHT22;29650;47.378;8.300;2023-01-29T11:08:17;2.20;83.50
43987;DHT22;29650;47.378;8.300;2023-01-29T11:10:51;2.20;84.00
43987;DHT22;29650;47.378;8.300;2023-01-29T11:13:21;2.40;83.40
43987;DHT22;29650;47.378;8.300;2023-01-29T11:15:52;2.30;83.20
43987;DHT22;29650;47.378;8.300;2023-01-29T11:18:19;2.30;83.80
43987;DHT22;29650;47.378;8.300;2023-01-29T11:20:59;2.30;84.50
43987;DHT22;29650;47.378;8.300;2023-01-29T11:23:27;2.30;83.00
43987;DHT22;29650;47.378;8.300;2023-01-29T11:25:56;2.30;83.50
43987;DHT22;29650;47.378;8.300;2023-01-29T11:28:45;2.20;82.90
43987;DHT22;29650;47.378;8.300;2023-01-29T11:31:24;2.30;83.00
43987;DHT22;29650;47.378;8.300;2023-01-29T11:33:53;2.40;84.10
43987;DHT22;29650;47.378;8.300;2023-01-29T11:36:31;2.40;83.20
43987;DHT22;29650;47.378;8.300;2023-01-29T11:39:20;2.50;83.40
43987;DHT22;29650;47.378;8.300;2023-01-29T11:41:55;2.40;83.70
43987;DHT22;29650;47.378;8.300;2023-01-29T11:44:34;2.60;84.50
43987;DHT22;29650;47.378;8.300;2023-01-29T11:47:14;2.40;83.00
43987;DHT22;29650;47.378;8.300;2023-01-29T11:49:45;2.70;86.20
43987;DHT22;29650;47.378;8.300;2023-01-29T11:52:15;2.50;82.70
43987;DHT22;29650;47.378;8.300;2023-01-29T11:54:45;2.60;82.20
43987;DHT22;29650;47.378;8.300;2023-01-29T11:57:26;2.50;83.10
43987;DHT22;29650;47.378;8.300;2023-01-29T11:59:58;2.50;82.10
43987;DHT22;29650;47.378;8.300;2023-01-29T12:02:31;2.50;82.40
43987;DHT22;29650;47.378;8.300;2023-01-29T12:05:03;2.50;83.00
43987;DHT22;29650;47.378;8.300;2023-01-29T12:07:31;2.60;83.20
43987;DHT22;29650;47.378;8.300;2023-01-29T12:09:59;2.60;83.20
43987;DHT22;29650;47.378;8.300;2023-01-29T12:12:31;2.60;81.90
43987;DHT22;29650;47.378;8.300;2023-01-29T12:15:09;2.50;83.10
43987;DHT22;29650;47.378;8.300;2023-01-29T12:17:38;2.70;82.70
43987;DHT22;29650;47.378;8.300;2023-01-29T12:20:10;2.70;82.60
43987;DHT22;29650;47.378;8.300;2023-01-29T12:22:44;2.60;82.30
43987;DHT22;29650;47.378;8.300;2023-01-29T12:25:19;2.60;82.80
43987;DHT22;29650;47.378;8.300;2023-01-29T12:27:52;2.60;84.10
43987;DHT22;29650;47.378;8.300;2023-01-29T12:30:26;2.50;84.10
43987;DHT22;29650;47.378;8.300;2023-01-29T12:33:00;2.50;83.90
43987;DHT22;29650;47.378;8.300;2023-01-29T12:35:31;2.50;83.80
43987;DHT22;29650;47.378;8.300;2023-01-29T12:38:02;2.60;83.60
43987;DHT22;29650;47.378;8.300;2023-01-29T12:40:33;2.60;82.20
43987;DHT22;29650;47.378;8.300;2023-01-29T12:43:10;2.60;82.90
43987;DHT22;29650;47.378;8.300;2023-01-29T12:45:41;2.70;82.30
43987;DHT22;29650;47.378;8.300;2023-01-29T12:48:11;2.70;83.00
43987;DHT22;29650;47.378;8.300;2023-01-29T12:50:40;6.20;99.90
43987;DHT22;29650;47.378;8.300;2023-01-29T12:53:17;3.40;91.50
43987;DHT22;29650;47.378;8.300;2023-01-29T12:55:48;3.40;86.50
43987;DHT22;29650;47.378;8.300;2023-01-29T12:58:22;3.20;85.00
43987;DHT22;29650;47.378;8.300;2023-01-29T13:00:56;3.10;85.70
43987;DHT22;29650;47.378;8.300;2023-01-29T13:03:31;3.10;83.60
43987;DHT22;29650;47.378;8.300;2023-01-29T13:06:00;3.00;82.50
43987;DHT22;29650;47.378;8.300;2023-01-29T13:08:31;3.10;84.00
43987;DHT22;29650;47.378;8.300;2023-01-29T13:11:01;3.10;82.80
43987;DHT22;29650;47.378;8.300;2023-01-29T13:13:32;3.70;83.30
43987;DHT22;29650;47.378;8.300;2023-01-29T13:16:05;2.80;83.50
43987;DHT22;29650;47.378;8.300;2023-01-29T13:18:39;2.90;83.20
43987;DHT22;29650;47.378;8.300;2023-01-29T13:21:12;2.80;82.80
43987;DHT22;29650;47.378;8.300;2023-01-29T13:23:42;2.70;83.80
43987;DHT22;29650;47.378;8.300;2023-01-29T13:26:10;2.70;84.30
43987;DHT22;29650;47.378;8.300;2023-01-29T13:28:38;2.90;83.70
43987;DHT22;29650;47.378;8.300;2023-01-29T13:31:20;2.90;82.50
43987;DHT22;29650;47.378;8.300;2023-01-29T13:33:55;3.00;82.20
43987;DHT22;29650;47.378;8.300;2023-01-29T13:36:26;2.90;83.20
43987;DHT22;29650;47.378;8.300;2023-01-29T13:38:59;2.90;84.00
43987;DHT22;29650;47.378;8.300;2023-01-29T13:41:36;2.80;84.00
43987;DHT22;29650;47.378;8.300;2023-01-29T13:44:06;2.90;83.70
43987;DHT22;29650;47.378;8.300;2023-01-29T13:46:39;2.90;83.30
43987;DHT22;29650;47.378;8.300;2023-01-29T13:52:16;2.70;84.40
43987;DHT22;29650;47.378;8.300;2023-01-29T13:54:53;2.70;83.60
43987;DHT22;29650;47.378;8.300;2023-01-29T14:03:43;2.70;83.00
43987;DHT22;29650;47.378;8.300;2023-01-29T14:06:10;2.70;83.80
43987;DHT22;29650;47.378;8.300;2023-01-29T14:08:39;2.80;82.80
43987;DHT22;29650;47.378;8.300;2023-01-29T14:11:27;2.80;81.70
43987;DHT22;29650;47.378;8.300;2023-01-29T14:13:54;2.70;83.20
43987;DHT22;29650;47.378;8.300;2023-01-29T14:16:32;2.60;83.60
43987;DHT22;29650;47.378;8.300;2023-01-29T14:19:03;2.70;82.60
43987;DHT22;29650;47.378;8.300;2023-01-29T14:21:31;2.70;81.60
43987;DHT22;29650;47.378;8.300;2023-01-29T14:24:08;2.90;82.10
43987;DHT22;29650;47.378;8.300;2023-01-29T14:26:41;3.00;81.50
43987;DHT22;29650;47.378;8.300;2023-01-29T14:29:18;3.00;81.20
43987;DHT22;29650;47.378;8.300;2023-01-29T14:31:49;3.10;80.70
43987;DHT22;29650;47.378;8.300;2023-01-29T14:34:21;3.00;80.20
43987;DHT22;29650;47.378;8.300;2023-01-29T14:36:52;2.90;80.40
43987;DHT22;29650;47.378;8.300;2023-01-29T14:39:46;2.80;80.10
43987;DHT22;29650;47.378;8.300;2023-01-29T14:42:20;2.80;80.80
43987;DHT22;29650;47.378;8.300;2023-01-29T14:45:07;2.90;80.80
43987;DHT22;29650;47.378;8.300;2023-01-29T14:48:18;2.80;80.20
43987;DHT22;29650;47.378;8.300;2023-01-29T14:50:49;2.60;80.30
43987;DHT22;29650;47.378;8.300;2023-01-29T14:53:21;2.70;80.50
43987;DHT22;29650;47.378;8.300;2023-01-29T14:55:54;2.70;78.80
43987;DHT22;29650;47.378;8.300;2023-01-29T14:58:27;2.80;80.00
43987;DHT22;29650;47.378;8.300;2023-01-29T15:00:58;2.80;79.70
43987;DHT22;29650;47.378;8.300;2023-01-29T15:03:32;2.80;79.60
43987;DHT22;29650;47.378;8.300;2023-01-29T15:06:03;2.90;79.60
43987;DHT22;29650;47.378;8.300;2023-01-29T15:08:36;2.80;80.30
43987;DHT22;29650;47.378;8.300;2023-01-29T15:11:08;2.90;80.10
43987;DHT22;29650;47.378;8.300;2023-01-29T15:14:00;2.80;80.40
43987;DHT22;29650;47.378;8.300;2023-01-29T15:16:33;2.90;81.00
43987;DHT22;29650;47.378;8.300;2023-01-29T15:19:10;2.70;81.10
43987;DHT22;29650;47.378;8.300;2023-01-29T15:22:01;2.50;81.70
43987;DHT22;29650;47.378;8.300;2023-01-29T15:24:28;2.30;82.50
43987;DHT22;29650;47.378;8.300;2023-01-29T15:26:55;2.40;82.80
43987;DHT22;29650;47.378;8.300;2023-01-29T15:29:24;2.50;82.20
43987;DHT22;29650;47.378;8.300;2023-01-29T15:31:52;2.40;80.40
43987;DHT22;29650;47.378;8.300;2023-01-29T15:34:19;2.50;81.20
43987;DHT22;29650;47.378;8.300;2023-01-29T15:36:48;2.40;81.00
43987;DHT22;29650;47.378;8.300;2023-01-29T15:39:16;2.40;81.60
43987;DHT22;29650;47.378;8.300;2023-01-29T15:41:43;2.30;81.10
43987;DHT22;29650;47.378;8.300;2023-01-29T15:44:13;2.30;81.90
43987;DHT22;29650;47.378;8.300;2023-01-29T15:46:43;2.30;82.10
43987;DHT22;29650;47.378;8.300;2023-01-29T15:49:16;2.40;82.10
43987;DHT22;29650;47.378;8.300;2023-01-29T15:51:45;2.40;81.40
43987;DHT22;29650;47.378;8.300;2023-01-29T15:54:15;2.40;81.40
43987;DHT22;29650;47.378;8.300;2023-01-29T15:56:45;2.20;80.90
43987;DHT22;29650;47.378;8.300;2023-01-29T15:59:16;2.10;81.30
43987;DHT22;29650;47.378;8.300;2023-01-29T16:01:43;2.30;82.30
43987;DHT22;29650;47.378;8.300;2023-01-29T16:04:13;2.20;83.20
43987;DHT22;29650;47.378;8.300;2023-01-29T16:06:41;2.30;83.50
43987;DHT22;29650;47.378;8.300;2023-01-29T16:09:14;2.40;83.50
43987;DHT22;29650;47.378;8.300;2023-01-29T16:11:43;2.30;82.20
43987;DHT22;29650;47.378;8.300;2023-01-29T16:14:13;2.10;81.70
43987;DHT22;29650;47.378;8.300;2023-01-29T16:16:42;2.10;82.50
43987;DHT22;29650;47.378;8.300;2023-01-29T16:19:19;2.10;83.30
43987;DHT22;29650;47.378;8.300;2023-01-29T16:21:51;2.10;82.30
43987;DHT22;29650;47.378;8.300;2023-01-29T16:24:20;2.20;82.50
43987;DHT22;29650;47.378;8.300;2023-01-29T16:26:50;2.20;82.30